Time;durP1;ratioP1;P1;durP2;ratioP2;P2;SDS_P1;SDS_P2;PMS_P1;PMS_P2;Temp;Humidity;BMP_temperature;BMP_pressure;BME280_temperature;BME280_humidity;BME280_pressure;Samples;Min_cycle;Max_cycle;Signal;HPM_P1;HPM_P2
2024/01/26 00:01:09;;;;;;;186.45;7.43;;;;;;;20.54;48.27;100372.97;7294835;19;129465;-38
2024/01/26 00:03:35;;;;;;;201.73;7.97;;;;;;;20.50;48.29;100371.53;7296668;19;130866;-38
2024/01/26 00:06:00;;;;;;;212.10;8.23;;;;;;;20.48;48.52;100373.41;7297552;19;129548;-38
2024/01/26 00:08:25;;;;;;;177.25;6.97;;;;;;;20.49;47.93;100375.09;7295512;19;130508;-38
2024/01/26 00:10:51;;;;;;;217.70;8.93;;;;;;;20.34;47.71;100342.25;7292788;19;130124;-38
2024/01/26 00:13:16;;;;;;;253.45;10.02;;;;;;;20.52;47.82;100380.06;7296742;19;131105;-38
2024/01/26 00:15:46;;;;;;;190.30;7.30;;;;;;;20.52;47.97;100382.69;7295518;19;129935;-38
2024/01/26 00:18:11;;;;;;;197.88;7.75;;;;;;;20.53;47.68;100381.72;7294523;19;129273;-38
2024/01/26 00:20:36;;;;;;;198.07;7.72;;;;;;;20.51;48.27;100379.22;7295237;19;130228;-39
2024/01/26 00:23:02;;;;;;;214.32;8.50;;;;;;;20.51;48.55;100378.44;7294840;19;133023;-38
2024/01/26 00:25:27;;;;;;;162.00;6.65;;;;;;;20.45;49.11;100368.41;7297195;19;129794;-38
2024/01/26 00:27:52;;;;;;;229.80;9.15;;;;;;;20.46;49.01;100377.94;7293292;19;129236;-38
2024/01/26 00:30:18;;;;;;;175.82;6.95;;;;;;;20.43;49.83;100367.69;7293552;19;130524;-39
2024/01/26 00:32:43;;;;;;;250.13;9.73;;;;;;;20.45;49.74;100376.25;7295741;19;130495;-38
2024/01/26 00:35:08;;;;;;;170.95;6.80;;;;;;;20.45;50.07;100368.41;7294520;19;131359;-37
2024/01/26 00:37:34;;;;;;;200.07;8.15;;;;;;;20.44;50.29;100377.22;7292313;19;131498;-39
2024/01/26 00:39:59;;;;;;;246.25;10.35;;;;;;;20.44;49.82;100366.75;7292711;19;131116;-39
2024/01/26 00:42:25;;;;;;;221.55;8.80;;;;;;;20.42;50.17;100364.25;7295921;19;130455;-38
2024/01/26 00:44:50;;;;;;;186.77;7.82;;;;;;;20.42;50.93;100366.03;7296305;19;131637;-39
2024/01/26 00:47:16;;;;;;;161.57;6.53;;;;;;;20.41;50.63;100359.16;7294880;19;129533;-39
2024/01/26 00:49:41;;;;;;;235.63;9.35;;;;;;;20.32;50.84;100357.22;7294195;19;129036;-39
2024/01/26 00:52:06;;;;;;;195.27;7.80;;;;;;;20.25;51.35;100355.97;7294502;19;130281;-39
2024/01/26 00:54:32;;;;;;;194.95;7.72;;;;;;;20.15;51.32;100355.00;7294608;19;130440;-39
2024/01/26 00:56:57;;;;;;;261.40;11.32;;;;;;;20.25;50.38;100361.22;7295562;19;131695;-39
2024/01/26 00:59:22;;;;;;;210.43;8.50;;;;;;;20.28;49.83;100366.22;7295212;19;130760;-39
2024/01/26 01:01:48;;;;;;;105.70;4.43;;;;;;;20.32;48.97;100363.28;7292706;19;130279;-38
2024/01/26 01:04:13;;;;;;;167.35;6.85;;;;;;;20.41;49.05;100365.19;7295511;19;129795;-38
2024/01/26 01:06:38;;;;;;;239.23;9.33;;;;;;;20.42;48.79;100358.19;7294837;19;129321;-38
2024/01/26 01:09:05;;;;;;;277.80;10.98;;;;;;;20.43;48.35;100367.69;7292044;19;129246;-38
2024/01/26 01:11:30;;;;;;;164.90;6.50;;;;;;;20.48;48.67;100363.78;7293241;19;133247;-38
2024/01/26 01:13:56;;;;;;;140.07;6.10;;;;;;;20.45;48.08;100350.13;7293761;19;129406;-39
2024/01/26 01:16:22;;;;;;;201.67;7.80;;;;;;;20.46;48.41;100354.44;7295120;19;130011;-39
2024/01/26 01:18:48;;;;;;;221.70;8.52;;;;;;;20.46;48.09;100344.78;7294385;19;132722;-38
2024/01/26 01:21:13;;;;;;;194.68;7.78;;;;;;;20.31;48.38;100325.03;7292225;19;129677;-38
2024/01/26 01:23:38;;;;;;;178.40;7.18;;;;;;;20.45;48.52;100340.53;7291715;19;131083;-38
2024/01/26 01:26:04;;;;;;;169.90;6.75;;;;;;;20.48;48.21;100342.91;7294913;19;129674;-38
2024/01/26 01:28:29;;;;;;;208.52;8.15;;;;;;;20.36;49.48;100343.00;7294438;19;130156;-39
2024/01/26 01:30:54;;;;;;;165.68;6.68;;;;;;;20.15;49.64;100334.09;7293568;19;131485;-39
2024/01/26 01:33:20;;;;;;;163.50;6.50;;;;;;;20.12;49.92;100349.97;7294302;19;132159;-38
2024/01/26 01:35:46;;;;;;;212.50;8.43;;;;;;;20.05;50.26;100343.50;7293992;19;131431;-38
2024/01/26 01:38:11;;;;;;;202.05;8.00;;;;;;;20.01;50.87;100352.53;7293661;19;130819;-38
2024/01/26 01:40:36;;;;;;;178.80;7.07;;;;;;;19.99;50.34;100354.41;7293776;19;130871;-39
2024/01/26 01:43:02;;;;;;;158.40;6.40;;;;;;;19.95;50.37;100363.44;7293258;19;129789;-39
2024/01/26 01:45:27;;;;;;;239.88;9.07;;;;;;;19.95;50.65;100352.97;7292855;19;130116;-37
2024/01/26 01:47:53;;;;;;;206.85;8.38;;;;;;;19.93;51.14;100345.25;7294969;19;131984;-38
2024/01/26 01:50:18;;;;;;;168.65;6.55;;;;;;;19.73;51.03;100316.31;7291842;19;130179;-38
2024/01/26 01:52:47;;;;;;;150.80;6.15;;;;;;;19.88;50.83;100343.94;7292272;19;129766;-38
2024/01/26 01:55:14;;;;;;;239.60;9.27;;;;;;;19.85;51.47;100342.34;7292041;19;132169;-39
2024/01/26 01:57:41;;;;;;;194.63;7.72;;;;;;;19.83;51.15;100335.59;7290236;19;130201;-38
2024/01/26 02:00:26;;;;;;;206.55;8.18;;;;;;;19.94;50.94;100336.47;7292246;19;131081;-38
2024/01/26 02:02:52;;;;;;;204.10;8.15;;;;;;;20.10;50.55;100336.19;7294176;19;132092;-38
2024/01/26 02:05:18;;;;;;;194.68;7.82;;;;;;;20.20;50.00;100322.38;7293095;19;129651;-39
2024/01/26 02:07:50;;;;;;;168.60;6.55;;;;;;;20.31;50.11;100326.84;7291794;19;130229;-38
2024/01/26 02:10:16;;;;;;;213.63;8.52;;;;;;;20.15;49.28;100297.56;7293652;19;130413;-38
2024/01/26 02:12:41;;;;;;;164.90;6.65;;;;;;;20.33;48.87;100317.91;7293200;19;129806;-39
2024/01/26 02:15:08;;;;;;;229.88;9.07;;;;;;;20.40;48.49;100313.06;7288867;19;130830;-38
2024/01/26 02:17:34;;;;;;;;;;;;;;;20.41;50.44;100314.75;7288577;19;130851;-38
2024/01/26 02:20:01;;;;;;;211.23;9.02;;;;;;;20.27;48.13;100286.22;7289415;19;131302;-38
2024/01/26 02:22:26;;;;;;;148.85;6.07;;;;;;;20.44;48.26;100304.88;7293361;19;133255;-38
2024/01/26 02:24:52;;;;;;;177.82;7.10;;;;;;;20.27;48.33;100273.16;7292974;19;131339;-39
2024/01/26 02:27:20;;;;;;;147.32;5.93;;;;;;;20.34;49.16;100295.25;7290558;19;129356;-44
2024/01/26 02:29:46;;;;;;;210.23;8.48;;;;;;;20.26;50.23;100295.00;7291901;19;131260;-40
2024/01/26 02:32:12;;;;;;;166.80;6.82;;;;;;;20.12;50.04;100287.31;7293451;19;129949;-40
2024/01/26 02:34:37;;;;;;;176.27;7.30;;;;;;;20.08;50.73;100280.69;7290459;19;129666;-41
2024/01/26 02:37:03;;;;;;;290.85;12.05;;;;;;;20.00;50.72;100278.63;7291410;19;130213;-39
2024/01/26 02:39:28;;;;;;;207.90;8.38;;;;;;;20.00;50.63;100283.03;7292932;19;131429;-38
2024/01/26 02:41:55;;;;;;;121.40;5.05;;;;;;;19.96;50.73;100278.97;7292829;19;130218;-40
2024/01/26 02:44:20;;;;;;;183.77;8.00;;;;;;;19.75;50.76;100247.41;7292878;19;130118;-39
2024/01/26 02:46:48;;;;;;;258.77;9.82;;;;;;;19.89;51.38;100275.97;7291239;19;129649;-38
2024/01/26 02:49:14;;;;;;;202.05;8.15;;;;;;;19.89;51.12;100282.94;7291857;19;131766;-43
2024/01/26 02:51:39;;;;;;;186.80;7.45;;;;;;;19.84;51.69;100277.25;7288805;19;129811;-39
2024/01/26 02:54:05;;;;;;;200.70;8.10;;;;;;;19.84;51.60;100282.44;7290691;19;130910;-38
2024/01/26 02:56:30;;;;;;;194.68;7.88;;;;;;;19.83;51.39;100284.25;7289424;19;130185;-44
2024/01/26 02:58:55;;;;;;;103.47;4.53;;;;;;;19.86;51.36;100277.97;7289950;19;129746;-45
2024/01/26 03:01:21;;;;;;;171.50;6.80;;;;;;;20.02;51.03;100275.88;7286604;19;130504;-45
2024/01/26 03:03:46;;;;;;;211.23;8.23;;;;;;;20.17;50.17;100264.34;7284377;19;129181;-39
2024/01/26 03:06:12;;;;;;;242.65;9.68;;;;;;;20.23;49.53;100269.94;7291768;19;130219;-41
2024/01/26 03:08:38;;;;;;;174.83;7.13;;;;;;;20.29;48.99;100268.66;7289051;19;130382;-42
2024/01/26 03:11:04;;;;;;;207.73;8.57;;;;;;;20.31;48.73;100267.59;7288517;19;129716;-43
2024/01/26 03:13:29;;;;;;;234.43;9.00;;;;;;;20.35;48.74;100263.81;7292117;19;130281;-40
2024/01/26 03:15:55;;;;;;;192.35;7.90;;;;;;;20.34;48.53;100256.09;7288924;19;130271;-41
2024/01/26 03:18:21;;;;;;;108.80;4.47;;;;;;;20.28;48.66;100225.22;7289762;19;131197;-41
2024/01/26 03:20:47;;;;;;;169.47;6.70;;;;;;;20.42;48.19;100248.50;7289027;19;129995;-43
2024/01/26 03:23:12;;;;;;;232.73;9.07;;;;;;;20.45;47.92;100254.34;7291196;19;131485;-40
2024/01/26 03:25:38;;;;;;;138.38;5.55;;;;;;;20.43;48.77;100255.38;7291451;19;129469;-43
2024/01/26 03:28:04;;;;;;;216.80;8.88;;;;;;;20.43;48.10;100252.78;7290656;19;132162;-39
2024/01/26 03:30:29;;;;;;;183.45;7.13;;;;;;;20.42;47.79;100251.13;7288297;19;129443;-40
2024/01/26 03:32:55;;;;;;;233.88;9.10;;;;;;;20.43;49.08;100250.16;7291257;19;129660;-39
2024/01/26 03:35:20;;;;;;;188.38;7.75;;;;;;;20.35;49.83;100247.28;7289827;19;130405;-42
2024/01/26 03:37:45;;;;;;;170.50;6.80;;;;;;;20.24;49.90;100249.91;7290412;19;129629;-44
2024/01/26 03:40:11;;;;;;;173.05;7.22;;;;;;;20.15;50.07;100261.00;7288777;19;129981;-38
2024/01/26 03:42:37;;;;;;;255.07;10.13;;;;;;;20.08;50.99;100255.38;7290008;19;130514;-38
2024/01/26 03:45:03;;;;;;;212.18;8.40;;;;;;;20.02;50.78;100250.63;7290668;19;130491;-38
2024/01/26 03:47:28;;;;;;;144.45;5.82;;;;;;;19.91;50.58;100231.50;7296243;19;131153;-39
2024/01/26 03:49:54;;;;;;;211.50;8.55;;;;;;;20.00;50.83;100241.25;7296675;19;129505;-38
2024/01/26 03:52:21;;;;;;;225.70;8.82;;;;;;;19.99;50.89;100250.03;7296083;19;129881;-38
2024/01/26 03:54:46;;;;;;;133.65;5.72;;;;;;;19.94;51.54;100254.75;7298009;19;131519;-38
2024/01/26 03:57:12;;;;;;;183.60;7.75;;;;;;;19.95;51.07;100259.03;7297399;19;132270;-38
2024/01/26 03:59:38;;;;;;;216.80;8.68;;;;;;;19.93;51.27;100248.69;7297377;19;129391;-38
2024/01/26 04:02:03;;;;;;;214.38;8.63;;;;;;;19.78;51.86;100230.72;7295166;19;130869;-38
2024/01/26 04:04:28;;;;;;;219.95;9.02;;;;;;;20.03;50.90;100243.63;7296158;19;130290;-38
2024/01/26 04:06:54;;;;;;;161.38;6.93;;;;;;;20.01;50.45;100219.44;7295022;19;129683;-38
2024/01/26 04:09:19;;;;;;;204.07;7.85;;;;;;;20.25;49.30;100243.72;7294407;19;129674;-38
2024/01/26 04:11:44;;;;;;;223.02;8.65;;;;;;;20.12;49.40;100209.00;7294244;19;131665;-38
2024/01/26 04:14:10;;;;;;;215.27;9.05;;;;;;;20.34;49.10;100229.97;7296474;19;130689;-38
2024/01/26 04:16:35;;;;;;;199.80;8.02;;;;;;;20.33;48.92;100233.53;7297295;19;130894;-38
2024/01/26 04:19:00;;;;;;;227.55;9.05;;;;;;;20.33;48.40;100228.28;7296585;19;131089;-39
2024/01/26 04:21:26;;;;;;;116.32;4.78;;;;;;;20.33;48.31;100226.53;7293934;19;129735;-38
2024/01/26 04:23:51;;;;;;;165.65;6.68;;;;;;;20.39;48.55;100222.63;7295629;19;130265;-38
2024/01/26 04:26:20;;;;;;;214.10;8.50;;;;;;;20.37;48.36;100229.75;7294841;19;130308;-38
2024/01/26 04:28:45;;;;;;;189.13;7.30;;;;;;;20.38;47.99;100223.56;7295786;19;130519;-38
2024/01/26 04:31:11;;;;;;;237.02;9.65;;;;;;;20.33;48.20;100223.91;7296247;19;132179;-38
2024/01/26 04:33:36;;;;;;;193.32;7.88;;;;;;;20.36;47.99;100209.81;7294476;19;131082;-38
2024/01/26 04:36:01;;;;;;;184.55;7.25;;;;;;;20.35;48.51;100210.75;7294533;19;130348;-38
2024/01/26 04:38:28;;;;;;;258.67;10.00;;;;;;;20.36;48.53;100207.19;7295449;19;129191;-38
2024/01/26 04:40:53;;;;;;;191.27;7.85;;;;;;;20.13;49.41;100177.56;7290931;19;129478;-38
2024/01/26 04:43:19;;;;;;;161.52;6.82;;;;;;;20.30;49.71;100202.41;7293330;19;130863;-39
2024/01/26 04:45:45;;;;;;;203.65;8.00;;;;;;;20.64;48.51;100201.53;7293798;19;130888;-39
2024/01/26 04:48:11;;;;;;;228.75;9.25;;;;;;;20.77;48.58;100204.00;7296409;19;131148;-39
2024/01/26 04:50:36;;;;;;;185.32;7.22;;;;;;;20.88;48.04;100204.81;7295325;19;129909;-39
2024/01/26 04:53:01;;;;;;;200.38;7.78;;;;;;;21.59;46.46;100202.53;7290858;19;129015;-39
2024/01/26 04:55:30;;;;;;;275.10;11.10;;;;;;;22.14;45.14;100203.25;7288944;19;129670;-39
2024/01/26 04:57:55;;;;;;;223.45;9.07;;;;;;;22.59;44.45;100209.88;7292507;19;129169;-38
2024/01/26 05:00:21;;;;;;;184.63;7.78;;;;;;;22.85;43.54;100203.22;7293803;19;130425;-39
2024/01/26 05:02:46;;;;;;;156.18;6.32;;;;;;;23.21;42.96;100200.00;7293735;19;130172;-39
2024/01/26 05:05:12;;;;;;;239.73;9.55;;;;;;;23.33;42.64;100201.59;7293067;19;132876;-39
2024/01/26 05:07:38;;;;;;;255.53;10.23;;;;;;;23.27;42.65;100202.09;7291325;19;130288;-39
2024/01/26 05:10:05;;;;;;;222.57;9.10;;;;;;;22.61;43.25;100208.78;7289620;19;130404;-39
2024/01/26 05:12:31;;;;;;;242.88;9.82;;;;;;;22.00;44.27;100201.78;7282807;19;130213;-38
2024/01/26 05:14:56;;;;;;;245.20;9.90;;;;;;;21.67;45.01;100192.28;7288272;19;130288;-39
2024/01/26 05:17:21;;;;;;;248.70;9.77;;;;;;;21.46;45.53;100191.41;7293626;19;129267;-39
2024/01/26 05:19:47;;;;;;;163.77;6.55;;;;;;;21.31;46.22;100184.81;7292123;19;132086;-39
2024/01/26 05:22:12;;;;;;;193.48;8.30;;;;;;;21.86;45.64;100179.38;7293433;19;130187;-42
2024/01/26 05:24:38;;;;;;;291.70;11.53;;;;;;;21.96;44.93;100175.03;7290042;19;130305;-40
2024/01/26 05:27:03;;;;;;;216.05;8.93;;;;;;;21.91;45.83;100177.19;7289253;19;129488;-41
2024/01/26 05:29:29;;;;;;;215.38;8.93;;;;;;;21.88;45.68;100177.44;7290614;19;130327;-40
2024/01/26 05:31:54;;;;;;;99.60;4.07;;;;;;;21.55;46.43;100148.78;7286771;19;131434;-43
2024/01/26 05:34:20;;;;;;;308.15;12.65;;;;;;;21.55;46.80;100174.97;7292256;19;130389;-45
2024/01/26 05:36:45;;;;;;;237.43;9.43;;;;;;;21.46;47.27;100180.97;7285112;19;129403;-40
2024/01/26 05:39:11;;;;;;;233.93;9.48;;;;;;;21.34;46.82;100174.09;7285528;19;131864;-38
2024/01/26 05:41:37;;;;;;;213.93;8.53;;;;;;;21.24;47.23;100178.41;7284054;19;130131;-39
2024/01/26 05:44:03;;;;;;;182.67;7.13;;;;;;;21.11;47.93;100175.13;7292735;19;131539;-37
2024/01/26 05:46:28;;;;;;;301.48;12.30;;;;;;;20.94;48.33;100167.72;7290458;19;130525;-38
2024/01/26 05:48:55;;;;;;;211.20;8.75;;;;;;;20.95;48.87;100163.34;7290483;19;131620;-42
2024/01/26 05:51:20;;;;;;;116.50;5.07;;;;;;;20.68;48.92;100159.34;7289579;19;130544;-43
2024/01/26 05:53:46;;;;;;;243.93;9.82;;;;;;;20.57;49.37;100169.81;7290997;19;132629;-42
2024/01/26 05:56:11;;;;;;;169.35;6.97;;;;;;;20.52;48.83;100165.88;7290313;19;129215;-38
2024/01/26 05:58:36;;;;;;;238.18;10.23;;;;;;;20.44;49.11;100157.81;7285372;19;129822;-38
2024/01/26 06:01:02;;;;;;;271.55;10.68;;;;;;;20.40;49.41;100164.22;7288279;19;131513;-38
2024/01/26 06:03:27;;;;;;;177.97;7.33;;;;;;;20.38;49.79;100158.28;7290460;19;132191;-38
2024/01/26 06:05:53;;;;;;;179.05;7.32;;;;;;;20.36;50.15;100174.06;7292012;19;129565;-38
2024/01/26 06:08:18;;;;;;;154.32;6.45;;;;;;;20.30;50.09;100168.47;7287894;19;129203;-38
2024/01/26 06:10:44;;;;;;;322.65;13.55;;;;;;;20.36;49.82;100173.25;7285684;19;130906;-38
2024/01/26 06:13:09;;;;;;;169.55;7.10;;;;;;;20.38;49.78;100168.72;7290614;19;131984;-38
2024/01/26 06:15:35;;;;;;;179.65;7.28;;;;;;;20.43;48.98;100171.81;7288375;19;129552;-39
2024/01/26 06:18:01;;;;;;;181.43;7.33;;;;;;;20.36;49.35;100160.19;7291228;19;129637;-38
2024/01/26 06:20:31;;;;;;;284.63;11.63;;;;;;;20.30;49.41;100171.09;7288148;19;130109;-39
2024/01/26 06:22:57;;;;;;;193.68;7.88;;;;;;;20.27;49.87;100166.94;7291336;19;130464;-38
2024/01/26 06:25:22;;;;;;;123.45;5.10;;;;;;;20.21;49.91;100174.41;7291451;19;129412;-38
2024/01/26 06:27:47;;;;;;;139.57;5.72;;;;;;;20.16;50.23;100166.09;7292436;19;129821;-38
2024/01/26 06:30:13;;;;;;;235.25;9.48;;;;;;;20.15;50.26;100162.66;7289755;19;131330;-38
2024/01/26 06:32:42;;;;;;;192.50;7.68;;;;;;;20.13;50.38;100159.28;7294351;19;133826;-38
2024/01/26 06:35:08;;;;;;;97.28;4.18;;;;;;;19.94;50.49;100126.88;7290887;19;131373;-38
2024/01/26 06:37:33;;;;;;;224.13;9.17;;;;;;;20.08;50.72;100158.00;7290584;19;129312;-38
2024/01/26 06:39:59;;;;;;;258.02;10.00;;;;;;;20.05;51.15;100164.25;7290143;19;129700;-38
2024/01/26 06:42:25;;;;;;;160.90;6.65;;;;;;;20.10;51.44;100148.25;7292054;19;133429;-38
2024/01/26 06:44:54;;;;;;;187.13;7.57;;;;;;;20.10;50.95;100146.47;7292736;19;131730;-38
2024/01/26 06:47:19;;;;;;;197.07;8.27;;;;;;;20.13;50.99;100140.22;7290353;19;129839;-39
2024/01/26 06:49:45;;;;;;;242.15;9.82;;;;;;;20.10;51.10;100132.59;7290412;19;130870;-38
2024/01/26 06:52:11;;;;;;;187.40;7.63;;;;;;;20.09;50.54;100137.00;7292203;19;130335;-38
2024/01/26 06:54:38;;;;;;;189.35;7.55;;;;;;;20.10;50.88;100132.59;7291889;19;131166;-38
2024/01/26 06:57:04;;;;;;;129.02;5.65;;;;;;;20.12;50.80;100143.75;7289471;19;129461;-38
2024/01/26 06:59:30;;;;;;;285.63;11.60;;;;;;;20.08;49.76;100137.91;7289300;19;130265;-38
2024/01/26 07:01:55;;;;;;;159.35;6.70;;;;;;;20.15;50.37;100135.72;7290848;19;129064;-38
2024/01/26 07:04:20;;;;;;;233.48;9.35;;;;;;;20.17;50.12;100133.81;7287882;19;131158;-38
2024/01/26 07:06:46;;;;;;;188.20;7.60;;;;;;;20.17;50.33;100132.06;7291311;19;131941;-38
2024/01/26 07:09:11;;;;;;;229.00;9.13;;;;;;;20.20;50.03;100129.19;7292352;19;133403;-38
2024/01/26 07:11:38;;;;;;;199.83;8.00;;;;;;;20.28;49.79;100136.47;7286368;19;130308;-38
2024/01/26 07:14:03;;;;;;;;;;;;;;;20.59;49.21;100127.91;7291962;19;130333;-38
2024/01/26 07:16:29;;;;;;;214.45;8.63;;;;;;;20.78;48.69;100120.25;7287927;19;129805;-38
2024/01/26 07:18:54;;;;;;;244.23;9.48;;;;;;;20.97;47.65;100115.28;7291318;19;130112;-38
2024/01/26 07:21:20;;;;;;;193.63;8.05;;;;;;;21.06;47.61;100105.84;7292071;19;130115;-38
2024/01/26 07:23:46;;;;;;;190.13;7.55;;;;;;;21.04;48.08;100099.94;7296970;19;128821;-39
2024/01/26 07:26:17;;;;;;;204.57;8.15;;;;;;;21.06;47.93;100108.44;7298584;19;132266;-39
2024/01/26 07:28:43;;;;;;;220.93;8.70;;;;;;;21.00;47.77;100091.50;7297104;19;131991;-39
2024/01/26 07:31:08;;;;;;;179.85;7.30;;;;;;;20.93;47.96;100076.38;7296331;19;131865;-39
2024/01/26 07:33:34;;;;;;;86.03;3.65;;;;;;;21.05;48.28;100091.97;7296885;19;129061;-39
2024/01/26 07:35:59;;;;;;;194.90;7.53;;;;;;;20.96;48.38;100087.41;7295123;19;129176;-39
2024/01/26 07:38:25;;;;;;;213.20;8.38;;;;;;;20.92;48.99;100091.25;7298130;19;130499;-38
2024/01/26 07:40:50;;;;;;;173.73;7.13;;;;;;;20.84;49.11;100087.59;7298133;19;132246;-38
2024/01/26 07:43:15;;;;;;;166.18;6.80;;;;;;;20.77;49.15;100087.25;7298546;19;132427;-38
2024/01/26 07:45:41;;;;;;;157.40;6.45;;;;;;;20.39;49.65;100055.50;7295763;19;129231;-39
2024/01/26 07:48:07;;;;;;;197.60;8.00;;;;;;;20.43;49.48;100080.41;7297396;19;129433;-38
2024/01/26 07:50:32;;;;;;;227.70;9.15;;;;;;;20.23;49.42;100061.06;7294842;19;130378;-39
2024/01/26 07:52:58;;;;;;;175.82;7.28;;;;;;;20.32;49.62;100078.66;7296103;19;129294;-38
2024/01/26 07:55:23;;;;;;;205.25;8.30;;;;;;;20.30;49.81;100069.25;7297262;19;131958;-38
2024/01/26 07:57:48;;;;;;;196.52;7.97;;;;;;;20.23;50.48;100070.72;7295738;19;131837;-39
2024/01/26 08:00:14;;;;;;;174.43;7.25;;;;;;;20.26;50.39;100060.03;7296075;19;131560;-38
2024/01/26 08:02:39;;;;;;;180.57;7.35;;;;;;;20.28;49.98;100063.34;7296384;19;129276;-38
2024/01/26 08:05:05;;;;;;;277.03;11.07;;;;;;;20.27;50.11;100059.06;7296553;19;129219;-39
2024/01/26 08:07:31;;;;;;;175.45;7.10;;;;;;;20.31;49.21;100063.09;7297318;19;132881;-38
2024/01/26 08:09:57;;;;;;;181.20;7.40;;;;;;;20.35;50.02;100054.91;7296568;19;130349;-38
2024/01/26 08:12:22;;;;;;;202.85;8.35;;;;;;;20.32;49.70;100049.94;7296386;19;128986;-38
2024/01/26 08:14:47;;;;;;;201.93;8.13;;;;;;;20.32;50.01;100043.88;7297473;19;132821;-38
2024/01/26 08:17:13;;;;;;;187.00;7.67;;;;;;;20.19;50.11;100032.72;7293295;19;131338;-38
2024/01/26 08:19:38;;;;;;;145.32;6.15;;;;;;;20.24;50.32;100046.25;7295163;19;130192;-38
2024/01/26 08:22:04;;;;;;;203.77;7.75;;;;;;;20.23;50.83;100042.00;7297076;19;129725;-38
2024/01/26 08:24:29;;;;;;;242.73;10.02;;;;;;;20.20;50.10;100048.28;7296363;19;131068;-38
2024/01/26 08:26:55;;;;;;;174.35;7.40;;;;;;;20.17;50.39;100047.66;7296316;19;130826;-38
2024/01/26 08:29:24;;;;;;;82.07;3.50;;;;;;;20.18;51.31;100046.75;7294887;19;130488;-38
2024/01/26 08:31:50;;;;;;;219.63;8.95;;;;;;;20.13;50.81;100030.56;7293244;19;132315;-38
2024/01/26 08:34:15;;;;;;;247.35;10.27;;;;;;;20.18;50.79;100036.31;7296554;19;129074;-38
2024/01/26 08:36:41;;;;;;;199.38;8.45;;;;;;;20.15;50.84;100028.69;7294117;19;130327;-38
2024/01/26 08:39:11;;;;;;;200.45;7.97;;;;;;;20.03;51.21;100008.75;7295266;19;131082;-38
2024/01/26 08:41:37;;;;;;;193.32;7.88;;;;;;;20.11;51.45;100029.84;7293713;19;129963;-38
2024/01/26 08:44:03;;;;;;;179.57;6.90;;;;;;;19.96;50.65;99992.75;7296764;19;130700;-38
2024/01/26 08:46:28;;;;;;;202.63;8.35;;;;;;;20.14;51.21;100003.50;7295291;19;130669;-38
2024/01/26 08:48:54;;;;;;;203.50;8.07;;;;;;;20.21;50.95;100010.75;7294607;19;130525;-39
2024/01/26 08:51:19;;;;;;;226.68;9.35;;;;;;;20.27;50.93;100012.06;7292505;19;130164;-39
2024/01/26 08:53:45;;;;;;;166.80;7.03;;;;;;;20.13;49.92;99987.00;7294949;19;129497;-39
2024/01/26 08:56:10;;;;;;;172.35;6.60;;;;;;;20.28;50.13;100013.75;7293563;19;130817;-39
2024/01/26 08:58:37;;;;;;;212.90;8.65;;;;;;;20.30;50.70;100015.25;7294244;19;131354;-39
2024/01/26 09:01:02;;;;;;;239.43;9.20;;;;;;;20.18;50.44;99989.31;7292768;19;131034;-39
2024/01/26 09:03:27;;;;;;;139.60;5.68;;;;;;;20.29;49.71;100004.94;7296096;19;129432;-39
2024/01/26 09:05:53;;;;;;;172.60;6.80;;;;;;;20.33;49.83;100001.97;7294920;19;130228;-39
2024/01/26 09:08:18;;;;;;;161.75;6.55;;;;;;;20.37;49.54;100010.38;7293759;19;130878;-38
2024/01/26 09:10:44;;;;;;;274.53;10.77;;;;;;;20.35;49.57;100007.06;7293752;19;131809;-38
2024/01/26 09:13:09;;;;;;;176.73;7.15;;;;;;;20.22;50.21;99994.16;7295284;19;129419;-38
2024/01/26 09:15:35;;;;;;;172.13;6.85;;;;;;;20.17;50.27;99987.63;7293373;19;130836;-38
2024/01/26 09:18:01;;;;;;;177.80;7.27;;;;;;;19.99;50.78;99962.94;7294102;19;133308;-39
2024/01/26 09:20:26;;;;;;;251.17;10.03;;;;;;;20.11;50.63;99983.72;7294731;19;131379;-38
2024/01/26 09:22:52;;;;;;;187.75;7.38;;;;;;;20.09;50.37;99979.53;7293759;19;130492;-38
2024/01/26 09:25:17;;;;;;;180.45;7.28;;;;;;;20.11;50.87;99973.28;7292200;19;130078;-39
2024/01/26 09:27:43;;;;;;;208.60;8.27;;;;;;;20.07;50.61;99971.00;7291801;19;129091;-44
2024/01/26 09:30:08;;;;;;;219.05;8.68;;;;;;;20.05;50.98;99970.28;7295076;19;132195;-38
2024/01/26 09:32:34;;;;;;;239.90;10.07;;;;;;;20.06;51.40;99953.69;7293530;19;129747;-40
2024/01/26 09:35:02;;;;;;;200.10;8.02;;;;;;;20.03;51.34;99953.94;7292569;19;129554;-38
2024/01/26 09:37:28;;;;;;;206.07;8.30;;;;;;;19.99;50.89;99939.47;7293407;19;131037;-39
2024/01/26 09:39:53;;;;;;;170.13;6.47;;;;;;;20.00;51.65;99926.28;7294810;19;129848;-40
2024/01/26 09:42:19;;;;;;;168.85;6.70;;;;;;;20.03;52.03;99930.47;7294325;19;130202;-43
2024/01/26 09:44:44;;;;;;;164.45;6.72;;;;;;;20.07;51.35;99939.69;7290702;19;130138;-43
2024/01/26 09:47:14;;;;;;;234.20;9.35;;;;;;;20.10;51.47;99931.59;7293646;19;133336;-38
2024/01/26 09:49:46;;;;;;;169.73;6.80;;;;;;;20.15;51.38;99927.72;7294256;19;130301;-40
2024/01/26 09:52:12;;;;;;;180.13;7.32;;;;;;;20.00;51.21;99902.00;7293599;19;129265;-36
2024/01/26 09:54:40;;;;;;;209.48;8.68;;;;;;;20.16;50.54;99918.13;7291423;19;130034;-44
2024/01/26 09:57:08;;;;;;;159.63;6.47;;;;;;;20.16;51.10;99911.09;7290325;19;131071;-39
2024/01/26 09:59:33;;;;;;;250.70;10.15;;;;;;;20.02;50.40;99879.19;7292565;19;129173;-42
2024/01/26 10:02:00;;;;;;;198.00;7.82;;;;;;;20.17;50.25;99888.44;7294060;19;129567;-39
2024/01/26 10:04:26;;;;;;;237.98;9.70;;;;;;;20.21;50.38;99884.63;7291214;19;130288;-37
2024/01/26 10:06:51;;;;;;;156.63;6.35;;;;;;;20.19;50.47;99874.31;7293103;19;130834;-43
2024/01/26 10:09:17;;;;;;;185.45;7.38;;;;;;;20.20;50.62;99862.06;7292665;19;130013;-41
2024/01/26 10:11:43;;;;;;;199.60;8.18;;;;;;;20.19;50.53;99855.22;7292006;19;131090;-41
2024/01/26 10:14:08;;;;;;;171.57;7.10;;;;;;;20.23;50.25;99846.19;7291189;19;130907;-40
2024/01/26 10:16:34;;;;;;;206.52;8.23;;;;;;;20.18;49.71;99838.72;7290946;19;132074;-41
2024/01/26 10:18:59;;;;;;;209.30;8.18;;;;;;;20.22;50.01;99836.69;7293348;19;130446;-44
2024/01/26 10:21:24;;;;;;;161.75;6.50;;;;;;;20.18;49.95;99827.47;7291538;19;129318;-41
2024/01/26 10:23:50;;;;;;;182.10;7.20;;;;;;;20.20;50.61;99833.38;7292206;19;130267;-38
2024/01/26 10:26:15;;;;;;;207.68;8.27;;;;;;;20.19;50.56;99834.34;7292925;19;131388;-40
2024/01/26 10:28:43;;;;;;;216.88;8.95;;;;;;;20.18;50.47;99836.09;7290778;19;129516;-46
2024/01/26 10:31:08;;;;;;;185.98;7.43;;;;;;;20.20;50.11;99838.59;7291424;19;129533;-38
2024/01/26 10:33:37;;;;;;;214.57;8.93;;;;;;;20.13;50.24;99799.06;7290309;19;130487;-37
2024/01/26 10:36:03;;;;;;;158.35;6.22;;;;;;;20.19;50.53;99797.78;7291338;19;131478;-38
2024/01/26 10:38:30;;;;;;;268.40;10.30;;;;;;;20.22;50.48;99808.81;7289135;19;130106;-45
2024/01/26 10:41:03;;;;;;;140.95;5.60;;;;;;;20.18;50.40;99801.38;7290028;19;129137;-41
2024/01/26 10:43:32;;;;;;;240.57;9.85;;;;;;;20.10;51.15;99788.06;7292029;19;131650;-37
2024/01/26 10:45:58;;;;;;;147.18;5.85;;;;;;;20.05;50.82;99785.81;7293343;19;132222;-38
2024/01/26 10:48:26;;;;;;;248.77;9.83;;;;;;;20.04;51.03;99778.13;7293063;19;131910;-39
2024/01/26 10:50:52;;;;;;;178.52;7.10;;;;;;;20.02;50.69;99773.03;7290523;19;129327;-42
2024/01/26 10:53:19;;;;;;;201.00;7.90;;;;;;;19.90;50.77;99752.34;7290771;19;129511;-43
2024/01/26 10:55:47;;;;;;;180.00;7.10;;;;;;;20.05;51.19;99774.53;7295008;19;131178;-43